Time;durP1;ratioP1;P1;durP2;ratioP2;P2;SDS_P1;SDS_P2;PMS_P1;PMS_P2;Temp;Humidity;BMP_temperature;BMP_pressure;BME280_temperature;BME280_humidity;BME280_pressure;Samples;Min_cycle;Max_cycle;Signal;HPM_P1;HPM_P2
2022/08/20 00:01:49;;;;;;;15.18;2.70;;;25.90;99.90;;;;;;5049037;28;20066;-70
2022/08/20 00:04:16;;;;;;;15.10;3.17;;;25.90;99.90;;;;;;5047757;28;20136;-70
2022/08/20 00:06:42;;;;;;;15.50;3.10;;;25.90;99.90;;;;;;5048587;28;20128;-70
2022/08/20 00:09:08;;;;;;;13.93;2.45;;;25.80;99.90;;;;;;5048774;28;20032;-70
2022/08/20 00:11:34;;;;;;;11.07;3.05;;;25.90;99.90;;;;;;5048656;28;20029;-70
2022/08/20 00:14:03;;;;;;;14.07;3.10;;;25.90;99.90;;;;;;5048787;28;20480;-70
2022/08/20 00:16:34;;;;;;;12.80;2.80;;;25.90;99.90;;;;;;5048877;28;20167;-70
2022/08/20 00:19:00;;;;;;;19.40;3.30;;;25.80;99.90;;;;;;5049019;28;20025;-70
2022/08/20 00:21:27;;;;;;;12.55;2.80;;;25.70;99.90;;;;;;5048893;28;20029;-69
2022/08/20 00:23:54;;;;;;;12.98;2.63;;;25.70;99.90;;;;;;5048726;28;20025;-70
2022/08/20 00:26:21;;;;;;;17.60;2.90;;;25.70;99.90;;;;;;5048908;28;20469;-70
2022/08/20 00:28:48;;;;;;;12.02;2.78;;;25.70;99.90;;;;;;4963032;28;2464883;-70
2022/08/20 00:31:18;;;;;;;10.05;2.47;;;25.60;99.90;;;;;;5049278;28;20029;-70
2022/08/20 00:33:46;;;;;;;17.75;3.10;;;25.50;99.90;;;;;;5049183;28;20039;-70
2022/08/20 00:36:14;;;;;;;14.82;2.90;;;25.60;99.90;;;;;;5049521;28;20490;-70
2022/08/20 00:38:42;;;;;;;12.75;3.13;;;25.50;99.90;;;;;;5049018;28;20538;-70
2022/08/20 00:41:11;;;;;;;13.98;2.97;;;25.60;99.90;;;;;;5049213;28;20025;-70
2022/08/20 00:43:42;;;;;;;17.77;2.90;;;25.60;99.90;;;;;;5049191;28;20036;-70
2022/08/20 00:46:17;;;;;;;9.48;2.35;;;25.60;99.90;;;;;;5049329;28;20025;-70
2022/08/20 00:48:46;;;;;;;15.00;3.00;;;25.70;99.90;;;;;;5049542;28;20017;-70
2022/08/20 00:51:30;;;;;;;15.65;2.97;;;25.60;99.90;;;;;;5048985;28;20025;-70
2022/08/20 00:54:10;;;;;;;16.85;3.17;;;25.70;99.90;;;;;;5049310;28;20041;-70
2022/08/20 00:56:37;;;;;;;11.70;2.65;;;25.70;99.90;;;;;;5049194;28;20028;-70
2022/08/20 00:59:09;;;;;;;16.85;2.83;;;25.70;99.90;;;;;;5049416;28;20029;-70
2022/08/20 01:01:35;;;;;;;13.35;2.80;;;25.70;99.90;;;;;;5049317;28;20029;-70
2022/08/20 01:04:01;;;;;;;12.65;2.97;;;25.70;99.90;;;;;;5049060;28;20029;-70
2022/08/20 01:06:27;;;;;;;13.90;3.78;;;25.60;99.90;;;;;;5049107;28;20100;-69
2022/08/20 01:08:53;;;;;;;;;;;25.60;99.90;;;;;;5049439;28;20037;-70
2022/08/20 01:11:29;;;;;;;12.93;3.25;;;25.40;99.90;;;;;;5049096;28;20122;-70
2022/08/20 01:13:57;;;;;;;13.95;2.95;;;25.50;99.90;;;;;;5049090;28;20082;-70
2022/08/20 01:16:27;;;;;;;13.02;2.80;;;25.50;99.90;;;;;;5052548;28;20048;-70
2022/08/20 01:18:56;;;;;;;16.10;3.45;;;25.50;99.90;;;;;;5052439;28;20048;-70
2022/08/20 01:21:30;;;;;;;15.45;3.05;;;25.40;99.90;;;;;;5052509;28;20029;-70
2022/08/20 01:24:38;;;;;;;11.10;2.90;;;25.40;99.90;;;;;;5052438;28;20139;-70
2022/08/20 01:27:05;;;;;;;14.52;3.47;;;25.20;99.90;;;;;;5030000;28;20098;-70
2022/08/20 01:29:37;;;;;;;12.27;3.00;;;25.10;99.90;;;;;;5030264;28;20125;-70
2022/08/20 01:32:04;;;;;;;14.80;2.90;;;25.10;99.90;;;;;;5030254;28;20131;-70
2022/08/20 01:34:30;;;;;;;14.45;3.70;;;25.00;99.90;;;;;;5030372;28;20040;-70
2022/08/20 01:36:57;;;;;;;14.38;3.17;;;25.00;99.90;;;;;;5029933;28;20060;-70
2022/08/20 01:39:27;;;;;;;12.20;3.28;;;24.90;99.90;;;;;;5029849;28;20060;-70
2022/08/20 01:42:17;;;;;;;17.13;3.10;;;24.80;99.90;;;;;;5030178;28;20080;-70
2022/08/20 01:44:45;;;;;;;12.35;2.90;;;24.80;99.90;;;;;;5029926;28;20117;-70
2022/08/20 01:47:27;;;;;;;12.65;3.00;;;24.70;99.90;;;;;;5012939;28;20025;-70
2022/08/20 01:49:58;;;;;;;16.20;2.85;;;24.50;99.90;;;;;;5023548;28;20438;-70
2022/08/20 01:52:50;;;;;;;11.80;3.00;;;24.50;99.90;;;;;;5029768;28;20026;-70
2022/08/20 01:55:17;;;;;;;12.52;2.90;;;24.50;99.90;;;;;;5029605;28;20040;-70
2022/08/20 01:57:43;;;;;;;;;;;24.40;99.90;;;;;;5029681;28;20346;-70
2022/08/20 02:00:12;;;;;;;;;;;24.40;99.90;;;;;;5029929;28;19905;-69
2022/08/20 02:02:38;;;;;;;17.10;3.28;;;24.40;99.90;;;;;;5032925;28;20329;-70
2022/08/20 02:05:24;;;;;;;14.00;3.22;;;24.40;99.90;;;;;;5051298;28;20040;-70
2022/08/20 02:07:51;;;;;;;14.93;2.90;;;24.40;99.90;;;;;;5051744;28;20044;-70
2022/08/20 02:10:17;;;;;;;14.27;3.10;;;24.50;99.90;;;;;;5051518;28;20017;-70
2022/08/20 02:12:44;;;;;;;14.40;3.38;;;24.70;99.90;;;;;;5051561;28;20032;-70
2022/08/20 02:15:12;;;;;;;17.67;3.42;;;24.60;99.90;;;;;;5051249;28;20128;-70
2022/08/20 02:17:40;;;;;;;16.23;3.00;;;24.70;99.90;;;;;;5051041;28;20029;-70
2022/08/20 02:20:11;;;;;;;15.63;3.47;;;24.70;99.90;;;;;;5049636;28;20048;-70
2022/08/20 02:22:44;;;;;;;14.45;3.60;;;24.70;99.90;;;;;;5050988;28;20481;-70
2022/08/20 02:25:11;;;;;;;12.18;3.00;;;24.80;99.90;;;;;;5051000;28;20109;-70
2022/08/20 02:27:40;;;;;;;10.43;3.05;;;24.80;99.90;;;;;;5049817;28;20053;-70
2022/08/20 02:30:14;;;;;;;11.23;3.42;;;24.80;99.90;;;;;;5049301;28;20327;-70
2022/08/20 02:32:40;;;;;;;13.57;3.55;;;24.90;99.90;;;;;;5051119;28;20503;-70
2022/08/20 02:35:09;;;;;;;13.35;2.80;;;24.90;99.90;;;;;;5050936;28;20029;-70
2022/08/20 02:37:38;;;;;;;14.60;3.42;;;25.00;99.90;;;;;;5050822;28;20025;-70
2022/08/20 02:40:06;;;;;;;14.20;3.05;;;25.00;99.90;;;;;;5050847;28;20107;-70
2022/08/20 02:42:33;;;;;;;11.90;2.78;;;24.80;99.90;;;;;;5049142;28;20489;-70
2022/08/20 02:45:00;;;;;;;13.90;3.05;;;24.80;99.90;;;;;;5050915;28;20032;-70
2022/08/20 02:47:26;;;;;;;14.35;3.20;;;24.80;99.90;;;;;;5051118;28;20044;-70
2022/08/20 02:49:58;;;;;;;17.83;3.40;;;24.80;99.90;;;;;;5051186;28;20028;-69
2022/08/20 02:52:24;;;;;;;10.98;2.80;;;24.80;99.90;;;;;;5050871;28;20044;-70
2022/08/20 02:54:51;;;;;;;14.27;3.28;;;24.80;99.90;;;;;;5051021;28;20029;-70
2022/08/20 02:57:21;;;;;;;12.23;2.60;;;24.80;99.90;;;;;;5051096;28;20056;-69
2022/08/20 02:59:48;;;;;;;14.45;2.95;;;24.80;99.90;;;;;;5050777;28;20333;-69
2022/08/20 03:02:15;;;;;;;16.40;3.28;;;24.80;99.90;;;;;;5050719;28;20025;-69
2022/08/20 03:04:41;;;;;;;16.00;2.95;;;24.80;99.90;;;;;;5050612;28;20531;-69
2022/08/20 03:07:09;;;;;;;12.13;2.88;;;24.80;99.90;;;;;;5050925;28;20044;-69
2022/08/20 03:09:35;;;;;;;10.18;2.47;;;24.80;99.90;;;;;;5050797;28;20138;-69
2022/08/20 03:12:02;;;;;;;;;;;24.80;99.90;;;;;;5051192;28;20032;-70
2022/08/20 03:14:28;;;;;;;10.63;2.65;;;24.90;99.90;;;;;;5050543;28;20016;-69
2022/08/20 03:16:54;;;;;;;10.95;3.05;;;24.90;99.90;;;;;;5050674;28;20053;-69
2022/08/20 03:19:21;;;;;;;10.73;3.00;;;24.90;99.90;;;;;;5050887;28;20131;-69
2022/08/20 03:21:48;;;;;;;13.00;2.90;;;25.00;99.90;;;;;;5051529;28;20021;-69
2022/08/20 03:24:14;;;;;;;;;;;25.00;99.90;;;;;;5051086;28;20029;-69
2022/08/20 03:26:41;;;;;;;16.40;3.65;;;25.00;99.90;;;;;;5049948;28;20234;-69
2022/08/20 03:29:07;;;;;;;13.40;3.15;;;25.00;99.90;;;;;;5051266;28;20052;-69
2022/08/20 03:31:33;;;;;;;10.68;2.88;;;25.00;99.90;;;;;;5051404;28;20071;-69
2022/08/20 03:33:59;;;;;;;12.82;2.90;;;25.10;99.90;;;;;;5051538;28;20469;-69
2022/08/20 03:36:27;;;;;;;13.38;2.78;;;25.10;99.90;;;;;;5051327;28;20029;-69
2022/08/20 03:38:55;;;;;;;16.25;3.13;;;25.00;99.90;;;;;;5051165;28;20024;-69
2022/08/20 03:41:23;;;;;;;12.60;2.80;;;24.90;99.90;;;;;;5051313;28;20427;-69
2022/08/20 03:43:49;;;;;;;19.95;3.00;;;24.80;99.90;;;;;;5049598;28;20029;-69
2022/08/20 03:46:15;;;;;;;13.27;3.22;;;24.70;99.90;;;;;;5050935;28;20017;-69
2022/08/20 03:48:41;;;;;;;13.43;3.10;;;24.70;99.90;;;;;;5050843;28;20027;-69
2022/08/20 03:51:07;;;;;;;15.93;3.00;;;24.70;99.90;;;;;;5050830;28;20102;-69
2022/08/20 03:53:33;;;;;;;12.10;2.75;;;24.70;99.90;;;;;;5051120;28;20414;-69
2022/08/20 03:56:03;;;;;;;11.07;2.85;;;24.70;99.90;;;;;;5051064;28;20481;-68
2022/08/20 03:58:33;;;;;;;14.38;2.92;;;24.70;99.90;;;;;;5051557;28;20112;-68
2022/08/20 04:00:59;;;;;;;15.10;2.92;;;24.80;99.90;;;;;;5050832;28;20120;-68
2022/08/20 04:03:26;;;;;;;11.65;2.85;;;24.70;99.90;;;;;;5050806;28;20025;-68
2022/08/20 04:05:52;;;;;;;16.15;3.72;;;24.70;99.90;;;;;;5051216;28;20033;-70
2022/08/20 04:08:28;;;;;;;12.48;3.28;;;24.60;99.90;;;;;;5050703;28;20119;-69
2022/08/20 04:10:56;;;;;;;13.43;2.90;;;24.60;99.90;;;;;;5051225;28;20033;-69
2022/08/20 04:13:24;;;;;;;17.77;3.20;;;24.60;99.90;;;;;;5050786;28;20060;-69
2022/08/20 04:15:54;;;;;;;15.85;3.55;;;24.60;99.90;;;;;;5051070;28;20037;-69
2022/08/20 04:18:22;;;;;;;10.98;2.53;;;24.60;99.90;;;;;;5051586;28;20025;-68
2022/08/20 04:20:50;;;;;;;10.10;3.85;;;24.70;99.90;;;;;;5051653;28;20448;-68
2022/08/20 04:23:17;;;;;;;12.93;3.42;;;24.70;99.90;;;;;;5051683;28;20496;-69
2022/08/20 04:25:44;;;;;;;16.13;3.28;;;24.60;99.90;;;;;;5051753;28;20029;-68
2022/08/20 04:28:15;;;;;;;14.45;3.05;;;24.60;99.90;;;;;;5050925;28;20136;-69
2022/08/20 04:30:41;;;;;;;13.38;3.67;;;24.60;99.90;;;;;;5051343;28;20032;-68
2022/08/20 04:33:09;;;;;;;12.10;3.15;;;24.60;99.90;;;;;;5051428;28;20029;-69
2022/08/20 04:35:36;;;;;;;12.45;3.17;;;24.70;99.90;;;;;;5051261;28;20033;-69
2022/08/20 04:38:06;;;;;;;14.45;3.45;;;24.80;99.90;;;;;;5051490;28;20029;-69
2022/08/20 04:43:19;;;;;;;14.88;3.22;;;24.90;99.90;;;;;;5051961;28;20067;-69
2022/08/20 04:45:45;;;;;;;16.42;3.20;;;25.00;99.90;;;;;;5051608;28;20028;-69
2022/08/20 04:48:12;;;;;;;10.52;3.00;;;25.10;99.90;;;;;;5051597;28;20021;-68
2022/08/20 04:50:40;;;;;;;;;;;25.10;99.90;;;;;;5054656;28;20055;-69
2022/08/20 04:53:09;;;;;;;13.35;2.78;;;25.20;99.90;;;;;;5055286;28;20429;-69
2022/08/20 04:55:41;;;;;;;11.82;3.38;;;25.30;99.90;;;;;;5055588;28;20477;-69
2022/08/20 04:58:10;;;;;;;13.15;3.08;;;25.30;99.90;;;;;;5055545;28;20013;-69
2022/08/20 05:00:37;;;;;;;13.27;3.08;;;25.40;99.90;;;;;;5055256;28;20032;-69
2022/08/20 05:03:05;;;;;;;18.80;3.75;;;25.40;99.90;;;;;;5055893;28;20394;-68
2022/08/20 05:05:35;;;;;;;13.00;3.30;;;25.50;99.90;;;;;;5055027;28;20029;-69
2022/08/20 05:08:03;;;;;;;13.70;3.03;;;25.60;99.90;;;;;;5055573;28;20355;-69
2022/08/20 05:10:29;;;;;;;12.18;3.00;;;25.80;99.90;;;;;;5055087;28;20444;-69
2022/08/20 05:12:55;;;;;;;;;;;25.90;99.90;;;;;;5055424;28;20078;-69
2022/08/20 05:15:23;;;;;;;12.13;2.65;;;26.10;99.90;;;;;;5054603;28;19972;-69
2022/08/20 05:18:01;;;;;;;13.73;2.90;;;26.70;99.90;;;;;;5054869;28;20025;-69
2022/08/20 05:20:30;;;;;;;10.90;2.85;;;27.80;99.90;;;;;;5055256;28;20028;-69
2022/08/20 05:22:57;;;;;;;14.40;3.20;;;28.90;99.90;;;;;;5054703;28;20017;-69
2022/08/20 05:25:23;;;;;;;8.25;2.33;;;30.30;99.90;;;;;;5054712;28;20021;-69
2022/08/20 05:27:54;;;;;;;14.05;3.22;;;31.30;99.90;;;;;;5054901;28;20449;-69
2022/08/20 05:30:21;;;;;;;11.57;3.20;;;32.10;99.90;;;;;;5054908;28;20021;-69
2022/08/20 05:32:48;;;;;;;9.90;2.33;;;33.30;99.90;;;;;;5054593;28;20025;-70
2022/08/20 05:35:14;;;;;;;11.10;2.58;;;34.60;99.90;;;;;;5054716;28;20126;-70
2022/08/20 05:37:40;;;;;;;11.32;2.40;;;35.60;99.90;;;;;;5054961;28;20492;-70
2022/08/20 05:40:12;;;;;;;11.05;2.80;;;36.10;99.90;;;;;;5054894;28;20041;-69
2022/08/20 05:42:38;;;;;;;14.15;2.97;;;35.80;99.90;;;;;;5054485;28;20028;-70
2022/08/20 05:45:05;;;;;;;11.27;2.80;;;35.40;99.90;;;;;;5054799;28;20029;-70
2022/08/20 05:47:32;;;;;;;12.05;2.67;;;35.80;99.90;;;;;;5052636;28;20021;-70
2022/08/20 05:49:59;;;;;;;8.48;2.40;;;36.70;98.80;;;;;;5053692;28;20044;-69
2022/08/20 05:52:25;;;;;;;9.23;2.75;;;37.80;97.60;;;;;;5053788;28;20029;-70
2022/08/20 05:54:53;;;;;;;9.88;2.33;;;38.70;96.50;;;;;;5053875;28;20123;-70
2022/08/20 05:57:19;;;;;;;9.10;2.50;;;39.70;95.00;;;;;;5052495;28;20029;-70
2022/08/20 05:59:46;;;;;;;12.88;2.60;;;40.60;93.80;;;;;;5053706;28;20466;-70
2022/08/20 06:04:58;;;;;;;13.40;2.60;;;41.90;91.60;;;;;;5053997;28;20192;-70
2022/08/20 06:07:24;;;;;;;10.98;2.67;;;42.10;90.90;;;;;;5053632;28;20028;-70
2022/08/20 06:09:50;;;;;;;9.23;2.30;;;42.40;90.40;;;;;;5053271;28;20066;-69
2022/08/20 06:12:17;;;;;;;10.45;2.17;;;42.50;90.10;;;;;;5053620;28;20029;-70
2022/08/20 06:14:43;;;;;;;12.25;2.60;;;41.10;90.60;;;;;;5053344;28;20037;-70
2022/08/20 06:17:12;;;;;;;10.45;3.00;;;40.80;90.60;;;;;;5053630;28;20040;-70
2022/08/20 06:19:38;;;;;;;10.70;2.30;;;41.60;90.40;;;;;;5053578;28;20058;-70
2022/08/20 06:22:06;;;;;;;12.45;2.58;;;42.20;88.80;;;;;;5052074;28;20445;-72
2022/08/20 06:24:32;;;;;;;10.25;2.40;;;42.80;88.30;;;;;;5052077;28;20034;-70
2022/08/20 06:27:00;;;;;;;8.32;2.47;;;43.50;86.70;;;;;;5053619;28;20021;-70
2022/08/20 06:29:28;;;;;;;8.73;2.47;;;44.20;85.00;;;;;;5053942;28;20060;-70
2022/08/20 06:31:55;;;;;;;11.38;2.17;;;43.90;84.80;;;;;;5051874;28;20117;-70
2022/08/20 06:34:26;;;;;;;9.25;2.35;;;44.00;84.30;;;;;;5053635;28;20040;-70
2022/08/20 06:36:53;;;;;;;12.18;2.22;;;44.00;84.30;;;;;;5053512;28;20331;-70
2022/08/20 06:39:20;;;;;;;10.00;2.25;;;43.80;84.70;;;;;;5053135;28;20029;-70
2022/08/20 06:41:46;;;;;;;9.10;2.30;;;43.70;83.00;;;;;;5051845;28;20029;-70
2022/08/20 06:44:13;;;;;;;8.85;1.95;;;43.60;83.40;;;;;;5053470;28;20087;-70
2022/08/20 06:46:39;;;;;;;12.25;2.75;;;44.00;81.60;;;;;;5053428;28;20052;-70
2022/08/20 06:49:07;;;;;;;8.57;1.98;;;42.90;82.60;;;;;;5053069;28;20017;-70
2022/08/20 06:51:33;;;;;;;11.43;2.25;;;43.50;82.40;;;;;;5051715;28;20234;-70
2022/08/20 06:54:00;;;;;;;10.93;2.50;;;44.80;80.40;;;;;;5052836;28;20029;-70
2022/08/20 06:56:26;;;;;;;9.05;2.17;;;45.00;80.00;;;;;;5052926;28;20025;-70
2022/08/20 06:58:52;;;;;;;10.15;2.20;;;45.30;77.40;;;;;;5053192;28;20070;-70
2022/08/20 07:01:19;;;;;;;8.05;2.40;;;45.40;77.30;;;;;;5052980;28;20465;-70
2022/08/20 07:03:47;;;;;;;11.30;2.40;;;45.60;77.20;;;;;;5052882;28;20111;-70
2022/08/20 07:06:14;;;;;;;10.32;2.20;;;45.90;76.00;;;;;;5052570;28;20025;-70
2022/08/20 07:08:41;;;;;;;13.07;2.35;;;45.90;73.50;;;;;;5050921;28;20330;-70
2022/08/20 07:11:08;;;;;;;7.43;1.92;;;45.60;74.90;;;;;;5050625;28;20495;-70
2022/08/20 07:13:37;;;;;;;8.38;2.10;;;43.90;75.10;;;;;;5051882;28;20036;-70
2022/08/20 07:16:04;;;;;;;7.78;1.85;;;44.60;75.10;;;;;;5052480;28;20048;-70
2022/08/20 07:18:30;;;;;;;8.57;1.75;;;44.00;75.10;;;;;;5052568;28;20465;-70
2022/08/20 07:20:57;;;;;;;9.15;1.90;;;44.90;74.80;;;;;;5052462;28;20046;-70
2022/08/20 07:23:28;;;;;;;7.30;1.95;;;44.80;73.70;;;;;;5052443;28;20021;-70
2022/08/20 07:25:54;;;;;;;8.02;1.85;;;43.80;74.00;;;;;;5052518;28;20025;-70
2022/08/20 07:28:23;;;;;;;8.07;1.88;;;43.40;74.60;;;;;;5052227;28;20136;-70
2022/08/20 07:33:38;;;;;;;7.45;1.98;;;41.90;78.00;;;;;;5052883;28;20031;-70
2022/08/20 07:36:04;;;;;;;13.25;2.63;;;41.00;79.60;;;;;;5052309;28;20021;-70
2022/08/20 07:38:32;;;;;;;7.10;2.20;;;40.40;80.80;;;;;;5051953;28;20029;-70
2022/08/20 07:41:12;;;;;;;8.98;1.90;;;39.90;81.40;;;;;;5052040;28;20114;-69
2022/08/20 07:43:38;;;;;;;12.60;2.30;;;38.80;83.70;;;;;;5052265;28;20492;-70
2022/08/20 07:46:08;;;;;;;7.88;2.25;;;38.20;84.20;;;;;;5051523;28;20028;-69
2022/08/20 07:48:40;;;;;;;9.38;2.42;;;38.20;85.20;;;;;;5051263;28;20399;-69
2022/08/20 07:51:08;;;;;;;9.88;2.05;;;38.00;85.50;;;;;;5050186;28;20085;-69
2022/08/20 07:53:36;;;;;;;6.18;2.13;;;37.90;85.70;;;;;;5050431;28;20023;-69
2022/08/20 07:56:05;;;;;;;9.63;2.20;;;37.50;86.00;;;;;;5050115;28;20127;-70
2022/08/20 07:58:31;;;;;;;10.50;2.72;;;37.10;87.40;;;;;;5050405;28;20073;-69
2022/08/20 08:00:57;;;;;;;8.65;2.53;;;37.30;87.70;;;;;;5050257;28;20060;-70
2022/08/20 08:03:25;;;;;;;8.40;2.53;;;37.20;87.20;;;;;;5050196;28;20040;-70
2022/08/20 08:05:51;;;;;;;11.63;2.47;;;36.50;87.60;;;;;;5050375;28;20108;-69
2022/08/20 08:08:23;;;;;;;9.02;2.30;;;36.20;89.60;;;;;;5050176;28;20025;-69
2022/08/20 08:10:52;;;;;;;9.35;2.17;;;36.30;89.00;;;;;;5050729;28;20040;-69
2022/08/20 08:13:18;;;;;;;8.32;2.22;;;36.60;88.40;;;;;;5050421;28;20025;-70
2022/08/20 08:15:48;;;;;;;7.20;2.08;;;36.50;88.30;;;;;;5049944;28;20045;-70
2022/08/20 08:18:20;;;;;;;10.15;2.47;;;36.30;87.80;;;;;;5051452;28;20147;-69
2022/08/20 08:20:51;;;;;;;8.95;2.13;;;35.50;90.10;;;;;;5051340;28;20391;-69
2022/08/20 08:23:19;;;;;;;7.05;2.05;;;35.40;90.20;;;;;;5051463;28;20025;-69
2022/08/20 08:25:45;;;;;;;9.98;2.42;;;35.20;90.30;;;;;;5054567;28;20078;-69
2022/08/20 08:28:13;;;;;;;9.18;1.85;;;35.10;90.20;;;;;;5055239;28;20068;-70
2022/08/20 08:30:41;;;;;;;9.80;2.33;;;35.20;90.10;;;;;;5055502;28;20033;-69
2022/08/20 08:33:28;;;;;;;11.50;2.70;;;35.60;89.80;;;;;;5055468;28;20055;-69
2022/08/20 08:36:03;;;;;;;10.63;2.60;;;35.90;91.50;;;;;;5053657;28;20477;-69
2022/08/20 08:38:33;;;;;;;12.55;3.10;;;36.10;92.50;;;;;;5055408;28;20025;-69
2022/08/20 08:41:15;;;;;;;17.45;3.50;;;36.30;92.50;;;;;;5054773;28;20120;-70
2022/08/20 08:43:45;;;;;;;16.60;3.40;;;36.00;92.90;;;;;;5055261;28;20021;-70
2022/08/20 08:46:15;;;;;;;12.30;3.30;;;35.80;93.10;;;;;;5055137;28;20445;-69
2022/08/20 08:48:45;;;;;;;15.25;3.17;;;34.70;94.10;;;;;;5053492;28;20031;-69
2022/08/20 08:51:15;;;;;;;13.52;3.30;;;34.00;95.40;;;;;;5054735;28;20060;-69
2022/08/20 08:53:49;;;;;;;14.93;3.42;;;33.90;95.80;;;;;;5055054;28;20059;-69
2022/08/20 08:56:16;;;;;;;19.23;3.55;;;33.90;95.90;;;;;;5054756;28;20056;-69
2022/08/20 08:58:43;;;;;;;13.18;3.17;;;33.80;95.80;;;;;;5054726;28;20404;-69
2022/08/20 09:01:15;;;;;;;16.75;3.33;;;33.70;95.80;;;;;;5055146;28;20021;-69
2022/08/20 09:03:48;;;;;;;12.60;2.75;;;33.50;95.70;;;;;;5054731;28;20035;-69
2022/08/20 09:06:19;;;;;;;13.38;3.08;;;33.30;95.80;;;;;;5055115;28;20458;-69
2022/08/20 09:08:59;;;;;;;13.38;2.90;;;33.00;96.40;;;;;;5054920;28;20418;-69
2022/08/20 09:11:26;;;;;;;10.80;2.63;;;32.90;96.20;;;;;;5055225;28;20027;-69
2022/08/20 09:13:53;;;;;;;8.38;2.53;;;33.40;95.90;;;;;;5054554;28;20382;-69
2022/08/20 09:16:21;;;;;;;12.63;3.03;;;33.80;95.20;;;;;;5054482;28;20025;-69
2022/08/20 09:18:48;;;;;;;11.18;2.80;;;34.10;95.60;;;;;;5054816;28;20022;-69
2022/08/20 09:21:14;;;;;;;13.48;2.83;;;34.30;95.50;;;;;;5054655;28;20032;-72
2022/08/20 09:23:41;;;;;;;14.05;2.90;;;34.30;95.70;;;;;;5054686;28;20096;-69
2022/08/20 09:26:07;;;;;;;12.95;3.10;;;34.20;96.30;;;;;;5054298;28;20028;-69
2022/08/20 09:28:34;;;;;;;11.98;2.97;;;33.90;96.30;;;;;;5054043;28;20110;-69
2022/08/20 09:31:00;;;;;;;15.15;2.70;;;33.90;96.10;;;;;;5054437;28;20056;-69
2022/08/20 09:33:26;;;;;;;15.65;2.92;;;33.50;96.50;;;;;;5054617;28;20147;-69
2022/08/20 09:35:52;;;;;;;19.33;3.20;;;33.20;97.30;;;;;;5053832;28;20039;-70
2022/08/20 09:38:18;;;;;;;;;;;32.90;97.70;;;;;;5053010;28;20159;-69
2022/08/20 09:40:44;;;;;;;17.38;3.55;;;32.90;98.00;;;;;;5054093;28;19999;-69
2022/08/20 09:43:10;;;;;;;;;;;32.90;98.00;;;;;;5054711;28;20482;-69
2022/08/20 09:45:37;;;;;;;16.92;3.08;;;32.80;97.90;;;;;;5054289;28;19905;-69
2022/08/20 09:48:03;;;;;;;22.27;3.65;;;32.60;98.20;;;;;;5053986;28;20028;-69
2022/08/20 09:50:31;;;;;;;;;;;32.50;98.00;;;;;;5054428;28;20092;-69
2022/08/20 09:53:00;;;;;;;11.65;3.00;;;32.50;97.90;;;;;;5054096;28;19991;-69
2022/08/20 09:55:43;;;;;;;18.27;2.95;;;32.80;97.70;;;;;;5054047;28;20506;-69
2022/08/20 09:58:23;;;;;;;14.25;3.00;;;33.10;97.60;;;;;;5054098;28;20527;-68
2022/08/20 10:00:49;;;;;;;65.97;5.78;;;33.10;97.20;;;;;;5052622;28;20076;-71
2022/08/20 10:03:15;;;;;;;18.70;2.83;;;33.40;96.90;;;;;;5054197;28;20098;-69
2022/08/20 10:05:42;;;;;;;11.77;2.95;;;33.50;96.30;;;;;;5053854;28;20468;-69
2022/08/20 10:08:09;;;;;;;14.18;3.08;;;33.70;96.20;;;;;;5053937;28;20017;-70
2022/08/20 10:10:35;;;;;;;17.85;3.10;;;33.70;96.10;;;;;;5053474;28;20032;-69
2022/08/20 10:13:01;;;;;;;13.80;2.78;;;33.60;96.40;;;;;;5053306;28;20040;-69
2022/08/20 10:15:27;;;;;;;;;;;33.40;96.90;;;;;;5053714;28;20048;-70
2022/08/20 10:17:55;;;;;;;11.68;2.35;;;33.40;96.90;;;;;;5053165;28;19927;-70
2022/08/20 10:20:23;;;;;;;13.05;2.60;;;33.30;97.00;;;;;;5053548;28;20032;-70
2022/08/20 10:22:50;;;;;;;13.32;2.42;;;33.20;96.80;;;;;;5053214;28;20041;-69
2022/08/20 10:25:16;;;;;;;11.05;2.88;;;33.40;96.50;;;;;;5053169;28;20359;-70
2022/08/20 10:27:43;;;;;;;12.95;3.20;;;33.30;96.20;;;;;;5053167;28;20045;-70
2022/08/20 10:30:10;;;;;;;12.95;2.88;;;33.50;96.00;;;;;;5053419;28;20043;-70
2022/08/20 10:32:36;;;;;;;12.70;2.35;;;33.60;96.00;;;;;;5053153;28;20145;-69
2022/08/20 10:35:02;;;;;;;;;;;33.70;96.00;;;;;;5053125;28;20056;-70
2022/08/20 10:37:28;;;;;;;16.58;3.00;;;33.70;95.80;;;;;;5052860;28;19905;-70
2022/08/20 10:39:54;;;;;;;;;;;33.60;95.80;;;;;;5053198;28;20021;-70
2022/08/20 10:42:20;;;;;;;11.05;2.50;;;33.30;95.80;;;;;;5053502;28;20014;-70
2022/08/20 10:44:47;;;;;;;17.52;3.13;;;33.60;95.80;;;;;;5052974;28;20025;-70
2022/08/20 10:47:31;;;;;;;;;;;33.80;95.60;;;;;;5052665;28;20021;-70
2022/08/20 10:49:59;;;;;;;21.55;2.80;;;33.50;95.50;;;;;;5052998;28;19905;-70
2022/08/20 10:52:28;;;;;;;17.48;3.30;;;33.40;95.80;;;;;;5052873;28;20021;-70
2022/08/20 10:54:54;;;;;;;12.88;3.17;;;33.70;95.40;;;;;;5053080;28;20514;-70
2022/08/20 10:57:26;;;;;;;12.55;2.58;;;33.40;95.70;;;;;;5053304;28;20376;-70
2022/08/20 10:59:55;;;;;;;11.30;2.70;;;33.60;95.60;;;;;;5052945;28;20319;-70
2022/08/20 11:02:21;;;;;;;12.15;2.97;;;33.70;95.80;;;;;;5052938;28;20032;-69
2022/08/20 11:04:49;;;;;;;14.63;2.97;;;33.50;96.00;;;;;;5052748;28;20116;-69
2022/08/20 11:07:18;;;;;;;29.63;4.00;;;33.30;96.10;;;;;;5052765;28;20029;-69
2022/08/20 11:09:46;;;;;;;16.75;3.10;;;33.40;96.30;;;;;;5052936;28;20055;-69
2022/08/20 11:12:12;;;;;;;11.02;2.40;;;33.50;96.30;;;;;;5052677;28;20147;-70
2022/08/20 11:14:39;;;;;;;21.30;3.50;;;33.50;96.40;;;;;;5052530;28;20037;-69
2022/08/20 11:17:06;;;;;;;15.25;2.58;;;33.60;96.30;;;;;;5052476;28;20215;-70
2022/08/20 11:19:37;;;;;;;15.40;2.97;;;33.70;96.40;;;;;;5053211;28;20471;-70
2022/08/20 11:22:03;;;;;;;18.17;2.88;;;33.60;96.30;;;;;;5052968;28;20063;-69
2022/08/20 11:24:29;;;;;;;;;;;33.50;96.80;;;;;;5053178;28;20473;-69
2022/08/20 11:26:55;;;;;;;13.98;3.10;;;33.70;97.00;;;;;;5052278;28;19905;-69
2022/08/20 11:29:23;;;;;;;13.43;2.88;;;33.80;96.60;;;;;;5052956;28;20037;-69
2022/08/20 11:31:50;;;;;;;23.67;3.38;;;33.90;96.60;;;;;;5053046;28;20343;-69
2022/08/20 11:34:16;;;;;;;23.08;2.92;;;33.90;96.50;;;;;;5052397;28;20033;-69
2022/08/20 11:36:42;;;;;;;;;;;33.90;96.30;;;;;;5052938;28;20429;-69
2022/08/20 11:39:08;;;;;;;14.50;3.38;;;33.90;96.40;;;;;;5052125;28;19909;-69
2022/08/20 11:41:34;;;;;;;;;;;33.90;96.40;;;;;;5052955;28;20021;-69
2022/08/20 11:44:00;;;;;;;13.45;2.85;;;33.70;96.50;;;;;;5052074;28;19911;-69
2022/08/20 11:46:26;;;;;;;;;;;33.90;95.60;;;;;;5052965;28;20035;-69
2022/08/20 11:48:52;;;;;;;9.05;2.70;;;33.90;94.60;;;;;;5052012;28;19999;-69
2022/08/20 11:51:18;;;;;;;;;;;33.60;95.10;;;;;;5052676;28;20397;-69
2022/08/20 11:53:44;;;;;;;12.02;3.40;;;33.60;95.10;;;;;;5052069;28;19911;-69
2022/08/20 11:56:12;;;;;;;22.30;3.92;;;33.50;95.70;;;;;;5051711;28;20071;-69
2022/08/20 11:58:38;;;;;;;16.92;4.05;;;33.60;96.30;;;;;;5052141;28;20021;-71
2022/08/20 12:01:04;;;;;;;22.77;4.60;;;33.40;96.20;;;;;;5052257;28;20488;-70
2022/08/20 12:03:30;;;;;;;;;;;33.40;96.20;;;;;;5052244;28;20032;-71
2022/08/20 12:05:56;;;;;;;12.50;3.20;;;33.40;96.20;;;;;;5052327;28;19905;-69
2022/08/20 12:08:22;;;;;;;16.35;3.80;;;33.50;95.70;;;;;;5051813;28;20025;-69
2022/08/20 12:10:48;;;;;;;;;;;33.50;95.50;;;;;;5052306;28;20029;-70
2022/08/20 12:13:14;;;;;;;18.27;3.60;;;33.50;95.50;;;;;;5052126;28;20281;-69
2022/08/20 12:15:41;;;;;;;;;;;33.70;95.30;;;;;;5052207;28;20040;-69
2022/08/20 12:18:08;;;;;;;14.63;3.70;;;33.90;95.10;;;;;;5052010;28;20298;-69
2022/08/20 12:20:35;;;;;;;15.25;4.68;;;33.80;94.90;;;;;;5052145;28;20143;-69
2022/08/20 12:23:02;;;;;;;14.23;4.40;;;33.90;94.90;;;;;;5052083;28;20477;-69
2022/08/20 12:25:28;;;;;;;19.65;5.63;;;33.90;94.70;;;;;;5052254;28;20501;-70
2022/08/20 12:27:55;;;;;;;13.90;5.40;;;34.10;94.50;;;;;;5051858;28;20044;-69
2022/08/20 12:30:23;;;;;;;20.73;6.20;;;34.10;94.60;;;;;;5052106;28;20020;-69
2022/08/20 12:32:49;;;;;;;17.33;4.80;;;34.10;94.70;;;;;;5052136;28;20115;-70
2022/08/20 12:35:15;;;;;;;;;;;34.10;94.40;;;;;;5052455;28;20095;-70
2022/08/20 12:37:42;;;;;;;12.52;4.45;;;34.00;93.80;;;;;;5052265;28;19911;-70
2022/08/20 12:40:13;;;;;;;16.73;6.82;;;33.80;93.70;;;;;;5050618;28;20087;-70
2022/08/20 12:42:39;;;;;;;14.02;6.47;;;33.70;94.10;;;;;;5052404;28;20139;-69
2022/08/20 12:45:05;;;;;;;;;;;33.50;94.60;;;;;;5052213;28;20417;-69
2022/08/20 12:47:36;;;;;;;22.60;8.35;;;33.60;94.60;;;;;;5052000;28;19948;-70
2022/08/20 12:50:07;;;;;;;32.55;8.48;;;33.70;94.70;;;;;;5050756;28;20401;-70
2022/08/20 12:52:33;;;;;;;21.17;8.20;;;33.90;94.60;;;;;;5052276;28;20074;-70
2022/08/20 12:55:00;;;;;;;25.90;7.53;;;34.00;94.20;;;;;;5051749;28;20036;-69
2022/08/20 12:57:40;;;;;;;16.08;7.35;;;33.90;94.10;;;;;;5051737;28;20104;-71
2022/08/20 13:00:31;;;;;;;17.30;6.32;;;34.00;93.90;;;;;;5052262;28;20108;-70